Ashburnham, Massachusetts
Current Conditions -  °F | °C
As of 8:52 PM on Wednesday 17 Dec 2014 (Local Time) from KFIT Reporting Station
Overcast Overcast  
Wind Chill: 34°   Ceiling: 4800
Heat Index: 41°   Visibility: 10mi
Dew Point: 33°   Wind: 13mph
Humidity: 73%   Direction: 300°WNW
Pressure: 29.74"   Gusts: 20mph
Location:  42.64°N, 71.91°W
Report Text: KFIT 180152Z AUTO 30011G17KT 10SM OVC048 05/01 A2974 RMK AO2 SLP074 T00500006
Loading
Personal Weather Stations






























Interactive Weather Map New forecast layout! Learn more

10-Day Weather Forecast

Advertisements
Track Severe Weather on mobile